createdAt,value
2018-09-23T00:01:47.006Z,3.50
2018-09-23T00:04:17.212Z,4.00
2018-09-23T00:06:47.313Z,2.80
2018-09-23T00:09:17.395Z,2.33
2018-09-23T00:11:47.445Z,3.93
2018-09-23T00:14:17.595Z,4.13
2018-09-23T00:16:47.601Z,3.50
2018-09-23T00:19:17.590Z,4.00
2018-09-23T00:21:47.615Z,3.53
2018-09-23T00:24:17.724Z,3.60
2018-09-23T00:26:47.944Z,3.10
2018-09-23T00:29:23.254Z,3.83
2018-09-23T00:31:53.349Z,2.87
2018-09-23T00:34:23.420Z,3.20
2018-09-23T00:36:53.429Z,2.80
2018-09-23T00:39:23.438Z,3.23
2018-09-23T00:41:53.488Z,2.20
2018-09-23T00:44:23.465Z,3.17
2018-09-23T00:46:53.519Z,3.13
2018-09-23T00:49:23.637Z,2.57
2018-09-23T00:51:53.636Z,2.30
2018-09-23T00:54:23.590Z,3.03
2018-09-23T00:56:53.673Z,3.80
2018-09-23T00:59:23.718Z,3.33
2018-09-23T01:01:53.807Z,2.67
2018-09-23T01:04:23.798Z,2.33
2018-09-23T01:06:54.055Z,2.80
2018-09-23T01:09:24.479Z,1.93
2018-09-23T01:11:54.451Z,2.53
2018-09-23T01:14:24.409Z,2.33
2018-09-23T01:16:54.459Z,2.93
2018-09-23T01:19:24.542Z,3.43
2018-09-23T01:21:54.654Z,2.17
2018-09-23T01:24:24.714Z,1.70
2018-09-23T01:26:55.555Z,3.07
2018-09-23T01:29:25.594Z,2.53
2018-09-23T01:31:55.640Z,2.60
2018-09-23T01:34:25.658Z,2.53
2018-09-23T01:36:55.668Z,2.40
2018-09-23T01:39:25.596Z,2.10
2018-09-23T01:41:55.791Z,2.23
2018-09-23T01:44:25.926Z,1.90
2018-09-23T01:46:55.987Z,2.93
2018-09-23T01:49:26.069Z,2.03
2018-09-23T01:51:56.088Z,1.77
2018-09-23T01:54:26.082Z,1.70
2018-09-23T01:56:56.228Z,4.13
2018-09-23T01:59:26.186Z,1.63
2018-09-23T02:01:56.324Z,1.70
2018-09-23T02:04:26.257Z,2.17
2018-09-23T02:06:56.292Z,2.00
2018-09-23T02:09:26.277Z,1.40
2018-09-23T02:11:56.335Z,3.47
2018-09-23T02:14:26.443Z,1.73
2018-09-23T02:16:56.427Z,1.77
2018-09-23T02:19:26.423Z,2.40
2018-09-23T02:21:56.425Z,1.87
2018-09-23T02:24:26.571Z,2.13
2018-09-23T02:26:56.678Z,2.70
2018-09-23T02:29:26.601Z,2.33
2018-09-23T02:31:56.678Z,2.67
2018-09-23T02:34:26.907Z,2.63
2018-09-23T02:36:56.920Z,1.40
2018-09-23T02:39:26.860Z,2.50
2018-09-23T02:41:57.063Z,1.93
2018-09-23T02:44:27.189Z,1.83
2018-09-23T02:46:57.465Z,1.57
2018-09-23T02:49:27.528Z,3.03
2018-09-23T02:51:57.681Z,1.97
2018-09-23T02:54:27.790Z,2.93
2018-09-23T02:56:57.905Z,2.27
2018-09-23T02:59:27.990Z,1.93
2018-09-23T03:01:57.989Z,1.90
2018-09-23T03:04:28.098Z,2.13
2018-09-23T03:06:58.182Z,2.03
2018-09-23T03:09:28.248Z,2.57
2018-09-23T03:11:58.398Z,1.83
2018-09-23T03:14:28.544Z,2.60
2018-09-23T03:16:58.789Z,1.67
2018-09-23T03:19:28.830Z,2.03
2018-09-23T03:21:58.826Z,1.37
2018-09-23T03:24:28.869Z,1.30
2018-09-23T03:26:58.956Z,1.73
2018-09-23T03:29:29.058Z,2.43
2018-09-23T03:31:59.046Z,1.20
2018-09-23T03:34:29.057Z,1.80
2018-09-23T03:36:59.314Z,1.90
2018-09-23T03:39:29.362Z,1.27
2018-09-23T03:41:59.378Z,2.53
2018-09-23T03:44:29.499Z,1.90
2018-09-23T03:46:59.642Z,2.37
2018-09-23T03:49:29.644Z,1.53
2018-09-23T03:51:59.867Z,2.73
2018-09-23T03:54:29.969Z,2.40
2018-09-23T03:57:00.125Z,1.50
2018-09-23T03:59:30.288Z,1.27
2018-09-23T04:02:00.262Z,3.17
2018-09-23T04:04:30.437Z,2.30
2018-09-23T04:07:00.549Z,1.80
2018-09-23T04:09:30.562Z,1.40
2018-09-23T04:12:00.665Z,1.40
2018-09-23T04:14:30.697Z,2.30
2018-09-23T04:17:00.803Z,1.50
2018-09-23T04:19:31.166Z,2.80
2018-09-23T04:22:01.198Z,1.33
2018-09-23T04:24:31.327Z,3.20
2018-09-23T04:27:01.618Z,3.07
2018-09-23T04:29:31.684Z,1.30
2018-09-23T04:32:01.728Z,1.27
2018-09-23T04:34:31.810Z,2.43
2018-09-23T04:37:01.949Z,1.43
2018-09-23T04:39:31.978Z,1.87
2018-09-23T04:42:02.103Z,1.90
2018-09-23T04:44:32.177Z,2.83
2018-09-23T04:47:02.269Z,2.93
2018-09-23T04:49:32.325Z,1.77
2018-09-23T04:52:02.366Z,2.63
2018-09-23T04:54:32.579Z,1.83
2018-09-23T04:57:03.051Z,1.07
2018-09-23T04:59:33.205Z,2.07
2018-09-23T05:02:03.238Z,1.87
2018-09-23T05:04:33.287Z,2.40
2018-09-23T05:07:03.468Z,1.37
2018-09-23T05:09:33.527Z,1.87
2018-09-23T05:12:04.343Z,2.37
2018-09-23T05:14:34.600Z,1.63
2018-09-23T05:17:04.848Z,4.37
2018-09-23T05:19:34.986Z,1.10
2018-09-23T05:22:05.439Z,2.50
2018-09-23T05:24:35.537Z,2.17
2018-09-23T05:27:05.737Z,2.07
2018-09-23T05:29:35.824Z,2.13
2018-09-23T05:32:05.869Z,2.77
2018-09-23T05:34:35.913Z,3.30
2018-09-23T05:37:06.414Z,3.57
2018-09-23T05:39:36.424Z,4.23
2018-09-23T05:42:06.637Z,3.33
2018-09-23T05:44:36.778Z,2.87
2018-09-23T05:50:01.476Z,2.77
2018-09-23T05:52:31.524Z,3.07
2018-09-23T05:55:01.565Z,3.83
2018-09-23T05:57:31.855Z,6.47
2018-09-23T06:00:02.185Z,6.60
2018-09-23T06:02:32.399Z,2.50
2018-09-23T06:07:57.035Z,6.27
2018-09-23T06:10:30.342Z,3.07
2018-09-23T06:13:01.241Z,4.03
2018-09-23T06:15:31.275Z,3.03
2018-09-23T06:18:01.441Z,8.03
2018-09-23T06:20:31.578Z,4.60
2018-09-23T06:23:01.769Z,2.93
2018-09-23T06:25:31.901Z,2.47
2018-09-23T06:28:02.353Z,2.70
2018-09-23T06:30:32.578Z,2.97
2018-09-23T06:33:02.773Z,2.00
2018-09-23T06:35:32.997Z,3.13
2018-09-23T06:38:03.481Z,6.53
2018-09-23T06:40:33.645Z,4.50
2018-09-23T06:43:03.709Z,3.50
2018-09-23T06:45:33.986Z,4.53
2018-09-23T06:48:04.036Z,6.33
2018-09-23T06:50:34.079Z,5.00
2018-09-23T06:53:04.718Z,25.60
2018-09-23T06:55:35.227Z,27.43
2018-09-23T06:58:05.393Z,19.53
2018-09-23T07:00:35.579Z,15.57
2018-09-23T07:03:05.768Z,13.03
2018-09-23T07:05:35.881Z,10.70
2018-09-23T07:08:06.232Z,11.90
2018-09-23T07:10:36.380Z,20.73
2018-09-23T07:13:06.722Z,13.70
2018-09-23T07:15:36.793Z,13.00
2018-09-23T07:18:06.937Z,16.07
2018-09-23T07:20:37.026Z,14.40
2018-09-23T07:23:07.143Z,14.07
2018-09-23T07:25:37.171Z,12.20
2018-09-23T07:28:07.176Z,7.40
2018-09-23T07:30:37.485Z,11.57
2018-09-23T07:33:07.838Z,9.53
2018-09-23T07:35:37.893Z,9.27
2018-09-23T07:38:07.907Z,14.97
2018-09-23T07:40:37.843Z,7.30
2018-09-23T07:43:08.021Z,13.80
2018-09-23T07:45:38.011Z,8.17
2018-09-23T07:51:11.428Z,6.50
2018-09-23T07:53:41.586Z,7.00
2018-09-23T07:56:12.450Z,15.20
2018-09-23T07:58:43.460Z,14.20
2018-09-23T08:01:13.813Z,11.63
2018-09-23T08:03:44.513Z,15.57
2018-09-23T08:06:16.344Z,8.03
2018-09-23T08:08:46.629Z,7.93
2018-09-23T08:11:17.264Z,8.93
2018-09-23T08:13:47.680Z,6.80
2018-09-23T08:16:17.609Z,6.93
2018-09-23T08:18:47.863Z,6.40
2018-09-23T08:21:19.706Z,6.53
2018-09-23T08:23:49.934Z,8.70
2018-09-23T08:26:20.162Z,9.00
2018-09-23T08:28:50.171Z,5.33
2018-09-23T08:31:22.113Z,6.97
2018-09-23T08:33:54.373Z,6.00
2018-09-23T08:36:25.702Z,10.67
2018-09-23T08:38:57.856Z,7.20
2018-09-23T08:41:28.973Z,6.97
2018-09-23T08:43:59.573Z,10.33
2018-09-23T08:46:29.680Z,7.67
2018-09-23T08:49:00.491Z,10.00
2018-09-23T08:51:30.939Z,7.40
2018-09-23T08:54:01.954Z,8.00
2018-09-23T08:56:34.510Z,6.73
2018-09-23T08:59:04.511Z,6.60
2018-09-23T09:01:35.648Z,7.27
2018-09-23T09:04:09.057Z,9.83
2018-09-23T09:06:39.552Z,7.80
2018-09-23T09:09:09.614Z,6.90
2018-09-23T09:11:40.941Z,8.47
2018-09-23T09:14:11.912Z,8.50
2018-09-23T09:16:41.880Z,10.17
2018-09-23T09:19:13.509Z,5.70
2018-09-23T09:21:43.945Z,7.00
2018-09-23T09:24:15.612Z,8.57
2018-09-23T09:26:45.726Z,6.77
2018-09-23T09:29:18.239Z,8.50
2018-09-23T09:31:50.902Z,15.67
2018-09-23T09:34:23.259Z,16.60
2018-09-23T09:36:53.686Z,11.73
2018-09-23T09:39:24.512Z,14.03
2018-09-23T09:41:54.688Z,18.17
2018-09-23T09:44:25.838Z,16.43
2018-09-23T09:46:59.433Z,13.43
2018-09-23T09:49:30.146Z,11.57
2018-09-23T09:52:00.714Z,12.97
2018-09-23T09:54:31.665Z,13.77
2018-09-23T09:57:01.787Z,13.23
2018-09-23T09:59:34.661Z,18.40
2018-09-23T10:02:04.879Z,23.27
2018-09-23T10:04:35.713Z,21.37
2018-09-23T10:07:06.572Z,17.33
2018-09-23T10:09:36.701Z,16.97
2018-09-23T10:12:06.793Z,18.50
2018-09-23T10:14:38.018Z,11.30
2018-09-23T10:17:08.022Z,11.83
2018-09-23T10:19:38.354Z,14.57
2018-09-23T10:22:09.130Z,12.27
2018-09-23T10:24:39.082Z,12.03
2018-09-23T10:27:13.668Z,14.87
2018-09-23T10:29:44.659Z,9.73
2018-09-23T10:32:16.513Z,13.37
2018-09-23T10:34:46.903Z,13.17
2018-09-23T10:37:18.000Z,10.03
2018-09-23T10:39:49.640Z,11.83
2018-09-23T10:42:20.611Z,12.73
2018-09-23T10:44:50.753Z,9.53
2018-09-23T10:47:21.492Z,7.67
2018-09-23T10:49:51.573Z,8.83
2018-09-23T10:52:22.336Z,9.10
2018-09-23T10:54:53.202Z,12.10
2018-09-23T10:57:24.834Z,10.70
2018-09-23T10:59:56.161Z,8.67
2018-09-23T11:02:30.169Z,9.83
2018-09-23T11:05:02.329Z,10.17
2018-09-23T11:07:32.641Z,12.10
2018-09-23T11:10:06.090Z,29.23
2018-09-23T11:12:36.496Z,23.93
2018-09-23T11:15:07.984Z,19.00
2018-09-23T11:17:38.107Z,16.70
2018-09-23T11:20:08.293Z,22.50
2018-09-23T11:25:32.988Z,14.10
2018-09-23T11:28:03.087Z,13.93
2018-09-23T11:30:33.253Z,12.63
2018-09-23T11:33:03.389Z,16.70
2018-09-23T11:35:33.483Z,13.47
2018-09-23T11:38:03.505Z,11.93
2018-09-23T11:40:33.644Z,8.57
2018-09-23T11:43:03.848Z,8.93
2018-09-23T11:45:33.949Z,8.27
2018-09-23T11:48:04.538Z,5.60
2018-09-23T11:50:34.576Z,3.53
2018-09-23T11:53:04.749Z,4.73
2018-09-23T11:55:34.800Z,5.53
2018-09-23T11:58:04.923Z,4.37
2018-09-23T12:00:35.040Z,5.57
2018-09-23T12:03:05.162Z,2.77
2018-09-23T12:05:35.362Z,4.33
2018-09-23T12:08:05.730Z,2.67
2018-09-23T12:10:35.822Z,3.17
2018-09-23T12:13:06.143Z,3.97
2018-09-23T12:15:36.260Z,4.50
2018-09-23T12:18:06.761Z,1.67
2018-09-23T12:20:37.021Z,3.47
2018-09-23T12:23:07.081Z,2.97
2018-09-23T12:25:37.367Z,1.93
2018-09-23T12:28:07.317Z,1.70
2018-09-23T12:30:37.434Z,4.63
2018-09-23T12:33:07.445Z,2.63
2018-09-23T12:35:37.508Z,3.03
2018-09-23T12:38:07.587Z,4.17
2018-09-23T12:40:37.651Z,4.53
2018-09-23T12:43:08.129Z,5.73
2018-09-23T12:45:38.245Z,2.40
2018-09-23T12:48:08.202Z,2.47
2018-09-23T12:50:38.250Z,1.40
2018-09-23T12:53:08.229Z,3.67
2018-09-23T12:55:38.444Z,3.33
2018-09-23T12:58:09.707Z,1.67
2018-09-23T13:00:40.306Z,2.67
2018-09-23T13:03:12.950Z,2.07
2018-09-23T13:05:43.982Z,2.47
2018-09-23T13:08:15.023Z,2.33
2018-09-23T13:10:45.975Z,1.80
2018-09-23T13:13:16.113Z,3.53
2018-09-23T13:15:47.719Z,3.17
2018-09-23T13:18:21.608Z,1.57
2018-09-23T13:20:53.379Z,3.43
2018-09-23T13:23:24.090Z,1.77
2018-09-23T13:25:55.182Z,3.33
2018-09-23T13:28:26.241Z,1.00
2018-09-23T13:30:57.950Z,8.80
2018-09-23T13:33:28.293Z,3.67
2018-09-23T13:35:59.578Z,3.30
2018-09-23T13:38:31.151Z,1.87
2018-09-23T13:41:01.660Z,2.73
2018-09-23T13:43:31.762Z,3.77
2018-09-23T13:46:02.552Z,3.30
2018-09-23T13:48:33.317Z,2.80
2018-09-23T13:51:03.590Z,1.57
2018-09-23T13:53:35.106Z,2.73
2018-09-23T13:56:07.026Z,2.30
2018-09-23T13:58:38.383Z,3.83
2018-09-23T14:01:13.450Z,4.10
2018-09-23T14:03:47.129Z,4.07
2018-09-23T14:06:17.691Z,3.00
2018-09-23T14:08:48.471Z,2.13
2018-09-23T14:11:21.418Z,1.93
2018-09-23T14:13:54.650Z,2.27
2018-09-23T14:16:27.126Z,4.33
2018-09-23T14:18:58.327Z,2.93
2018-09-23T14:21:29.454Z,2.00
2018-09-23T14:24:02.487Z,2.73
2018-09-23T14:26:36.497Z,2.70
2018-09-23T14:29:10.327Z,3.40
2018-09-23T14:31:41.574Z,2.07
2018-09-23T14:34:18.110Z,1.93
2018-09-23T14:36:49.804Z,1.90
2018-09-23T14:39:21.905Z,3.23
2018-09-23T14:41:53.023Z,2.20
2018-09-23T14:44:23.294Z,0.83
2018-09-23T14:46:55.643Z,1.90
2018-09-23T14:49:27.106Z,4.30
2018-09-23T14:51:58.213Z,1.37
2018-09-23T14:54:29.582Z,3.70
2018-09-23T14:56:59.891Z,1.70
2018-09-23T14:59:31.025Z,4.50
2018-09-23T15:02:02.441Z,0.93
2018-09-23T15:04:35.074Z,4.80
2018-09-23T15:07:05.896Z,4.50
2018-09-23T15:09:38.167Z,2.93
2018-09-23T15:12:11.800Z,2.73
2018-09-23T15:14:43.971Z,3.33
2018-09-23T15:17:15.277Z,3.70
2018-09-23T15:19:45.322Z,4.43
2018-09-23T15:22:18.338Z,3.10
2018-09-23T15:24:50.491Z,4.67
2018-09-23T15:27:24.893Z,2.43
2018-09-23T15:29:57.166Z,4.43
2018-09-23T15:32:28.644Z,3.00
2018-09-23T15:34:59.916Z,3.03
2018-09-23T15:37:31.763Z,6.07
2018-09-23T15:40:03.977Z,4.40
2018-09-23T15:42:35.663Z,5.00
2018-09-23T15:45:07.676Z,7.73
2018-09-23T15:47:40.239Z,3.83
2018-09-23T15:50:12.631Z,2.83
2018-09-23T15:52:46.444Z,6.30
2018-09-23T15:55:23.742Z,5.10
2018-09-23T16:00:54.783Z,12.20
2018-09-23T16:03:33.227Z,6.50
2018-09-23T16:06:07.140Z,5.30
2018-09-23T16:08:39.453Z,6.70
2018-09-23T16:11:09.584Z,8.13
2018-09-23T16:13:39.771Z,9.30
2018-09-23T16:16:09.883Z,5.33
2018-09-23T16:18:40.091Z,5.00
2018-09-23T16:21:10.064Z,5.10
2018-09-23T16:23:40.130Z,8.80
2018-09-23T16:26:10.200Z,7.83
2018-09-23T16:28:40.370Z,3.93
2018-09-23T16:31:10.572Z,10.30
2018-09-23T16:33:40.540Z,7.50
2018-09-23T16:36:10.565Z,8.50
2018-09-23T16:38:40.704Z,5.30
2018-09-23T16:41:10.786Z,5.77
2018-09-23T16:43:40.786Z,5.30
2018-09-23T16:49:09.286Z,4.50
2018-09-23T16:54:34.100Z,8.33
2018-09-23T16:57:04.101Z,6.97
2018-09-23T16:59:34.309Z,5.77
2018-09-23T17:02:04.307Z,8.93
2018-09-23T17:04:34.698Z,5.03
2018-09-23T17:07:04.733Z,7.87
2018-09-23T17:09:34.751Z,4.87
2018-09-23T17:12:04.728Z,15.67
2018-09-23T17:14:34.775Z,9.70
2018-09-23T17:17:04.741Z,9.17
2018-09-23T17:19:34.855Z,9.57
2018-09-23T17:22:04.989Z,5.60
2018-09-23T17:24:35.102Z,6.57
2018-09-23T17:27:05.130Z,5.13
2018-09-23T17:29:35.307Z,8.17
2018-09-23T17:32:05.320Z,2.40
2018-09-23T17:34:35.309Z,5.27
2018-09-23T17:37:05.417Z,4.83
2018-09-23T17:39:35.475Z,5.80
2018-09-23T17:42:05.677Z,6.83
2018-09-23T17:44:35.853Z,5.97
2018-09-23T17:47:06.177Z,8.90
2018-09-23T17:49:36.213Z,3.40
2018-09-23T17:52:06.391Z,8.57
2018-09-23T17:54:36.488Z,5.13
2018-09-23T17:57:06.612Z,5.90
2018-09-23T17:59:36.715Z,5.23
2018-09-23T18:02:06.850Z,7.90
2018-09-23T18:04:37.072Z,8.13
2018-09-23T18:07:07.128Z,6.03
2018-09-23T18:09:37.300Z,4.80
2018-09-23T18:17:56.655Z,3.43
2018-09-23T18:20:26.696Z,5.90
2018-09-23T18:22:56.881Z,7.70
2018-09-23T18:25:26.985Z,3.00
2018-09-23T18:27:57.757Z,3.80
2018-09-23T18:30:27.937Z,4.40
2018-09-23T18:32:58.181Z,5.70
2018-09-23T18:35:28.193Z,7.30
2018-09-23T18:37:58.263Z,105.87
2018-09-23T18:40:28.395Z,49.60
2018-09-23T18:42:58.518Z,44.53
2018-09-23T18:45:29.535Z,30.93
2018-09-23T18:47:59.982Z,33.10
2018-09-23T18:50:30.297Z,26.43
2018-09-23T18:53:05.790Z,23.33
2018-09-23T18:55:39.613Z,23.17
2018-09-23T18:58:10.021Z,23.77
2018-09-23T19:00:40.349Z,20.47
2018-09-23T19:03:10.892Z,22.00
2018-09-23T19:05:40.891Z,18.60
2018-09-23T19:08:11.126Z,22.20
2018-09-23T19:10:41.224Z,17.97
2018-09-23T19:13:20.390Z,20.43
2018-09-23T19:15:58.743Z,16.23
2018-09-23T19:18:29.647Z,21.03
2018-09-23T19:21:02.683Z,15.90
2018-09-23T19:23:34.645Z,15.43
2018-09-23T19:26:06.891Z,14.90
2018-09-23T19:28:36.982Z,14.27
2018-09-23T19:31:07.067Z,15.23
2018-09-23T19:33:37.382Z,15.07
2018-09-23T19:36:08.025Z,13.10
2018-09-23T19:38:39.140Z,11.93
2018-09-23T19:41:09.442Z,13.83
2018-09-23T19:43:39.535Z,15.20
2018-09-23T19:46:10.017Z,16.27
2018-09-23T19:48:40.240Z,14.13
2018-09-23T19:51:10.452Z,13.30
2018-09-23T19:53:40.576Z,11.63
2018-09-23T19:56:11.013Z,12.00
2018-09-23T20:01:35.954Z,10.60
2018-09-23T20:04:06.003Z,13.33
2018-09-23T20:06:36.233Z,10.87
2018-09-23T20:09:08.464Z,10.60
2018-09-23T20:11:38.477Z,9.30
2018-09-23T20:14:08.910Z,12.20
2018-09-23T20:16:38.879Z,12.30
2018-09-23T20:19:09.525Z,9.93
2018-09-23T20:21:39.533Z,10.20
2018-09-23T20:24:09.640Z,9.47
2018-09-23T20:26:39.803Z,10.17
2018-09-23T20:29:09.865Z,11.80
2018-09-23T20:31:39.914Z,9.80
2018-09-23T20:34:09.867Z,9.60
2018-09-23T20:36:40.031Z,9.47
2018-09-23T20:39:10.936Z,8.83
2018-09-23T20:41:41.095Z,8.40
2018-09-23T20:44:11.174Z,8.80
2018-09-23T20:46:41.504Z,9.43
2018-09-23T20:49:11.620Z,8.37
2018-09-23T20:51:42.788Z,8.43
2018-09-23T20:54:13.322Z,9.83
2018-09-23T20:56:43.478Z,8.40
2018-09-23T20:59:13.466Z,7.40
2018-09-23T21:01:43.608Z,12.60
2018-09-23T21:04:13.751Z,9.93
2018-09-23T21:06:43.915Z,11.77
2018-09-23T21:17:56.712Z,7.17
2018-09-23T21:20:26.715Z,7.13
2018-09-23T21:22:56.751Z,6.43
2018-09-23T21:25:26.726Z,7.60
2018-09-23T21:27:56.738Z,6.80
2018-09-23T21:30:26.785Z,6.33
2018-09-23T21:32:56.800Z,6.87
2018-09-23T21:35:26.798Z,8.30
2018-09-23T21:37:56.844Z,5.07
2018-09-23T21:40:26.795Z,4.90
2018-09-23T21:42:56.970Z,5.80
2018-09-23T21:45:26.982Z,4.87
2018-09-23T21:47:57.032Z,5.53
2018-09-23T21:53:23.754Z,6.53
2018-09-23T21:55:53.980Z,10.67
2018-09-23T21:58:24.152Z,9.33
2018-09-23T22:00:54.441Z,7.37
2018-09-23T22:06:19.176Z,5.50
2018-09-23T22:08:49.212Z,5.53
2018-09-23T22:11:19.997Z,4.57
2018-09-23T22:13:50.305Z,5.43
2018-09-23T22:16:20.564Z,5.37
2018-09-23T22:19:00.994Z,5.87
2018-09-23T22:21:33.751Z,6.10
2018-09-23T22:24:03.954Z,7.73
2018-09-23T22:26:34.700Z,3.77
2018-09-23T22:29:04.801Z,6.70
2018-09-23T22:31:34.873Z,4.40
2018-09-23T22:34:05.156Z,5.37
2018-09-23T22:36:35.188Z,5.90
2018-09-23T22:39:06.991Z,4.90
2018-09-23T22:41:37.176Z,5.17
2018-09-23T22:44:07.346Z,5.37
2018-09-23T22:46:37.518Z,3.93
2018-09-23T22:49:07.972Z,5.27
2018-09-23T22:51:38.297Z,4.70
2018-09-23T22:54:08.641Z,3.97
2018-09-23T22:56:38.897Z,3.67
2018-09-23T22:59:08.941Z,5.73
2018-09-23T23:01:38.995Z,4.50
2018-09-23T23:04:09.110Z,3.57
2018-09-23T23:06:39.175Z,5.10
2018-09-23T23:09:10.382Z,5.50
2018-09-23T23:11:40.551Z,4.00
2018-09-23T23:14:10.789Z,3.20
2018-09-23T23:16:40.801Z,3.53
2018-09-23T23:19:11.031Z,3.20
2018-09-23T23:21:41.005Z,5.50
2018-09-23T23:24:11.129Z,5.13
2018-09-23T23:26:41.435Z,4.40
2018-09-23T23:29:11.828Z,3.60
2018-09-23T23:31:42.015Z,4.37
2018-09-23T23:34:12.154Z,3.70
2018-09-23T23:36:45.568Z,3.27
2018-09-23T23:39:17.756Z,4.13
2018-09-23T23:41:49.222Z,4.10
2018-09-23T23:44:22.735Z,3.97
2018-09-23T23:46:52.958Z,4.03
2018-09-23T23:49:24.843Z,3.27
2018-09-23T23:51:54.887Z,3.50
2018-09-23T23:54:25.067Z,4.27
2018-09-23T23:56:55.277Z,4.43
2018-09-23T23:59:25.385Z,3.50
